createdAt,value
2022-11-19T00:02:13.472Z,13.15
2022-11-19T00:07:16.234Z,8.45
2022-11-19T00:12:36.469Z,10.65
2022-11-19T00:17:40.544Z,11.18
2022-11-19T00:22:43.173Z,9.35
2022-11-19T00:27:45.838Z,12.00
2022-11-19T00:32:49.723Z,12.32
2022-11-19T00:37:52.294Z,8.93
2022-11-19T00:43:08.897Z,12.93
2022-11-19T00:48:12.811Z,11.90
2022-11-19T00:53:15.504Z,7.68
2022-11-19T00:58:19.454Z,10.88
2022-11-19T01:03:23.811Z,7.95
2022-11-19T01:13:38.034Z,10.63
2022-11-19T01:18:43.186Z,9.88
2022-11-19T01:23:46.609Z,9.73
2022-11-19T01:28:49.243Z,7.57
2022-11-19T01:33:53.750Z,9.32
2022-11-19T01:44:00.563Z,10.63
2022-11-19T01:49:08.193Z,8.00
2022-11-19T01:54:17.585Z,11.95
2022-11-19T01:59:21.236Z,8.75
2022-11-19T02:04:26.869Z,8.10
2022-11-19T02:09:30.495Z,8.98
2022-11-19T02:14:55.234Z,7.47
2022-11-19T02:20:32.154Z,10.07
2022-11-19T02:25:52.956Z,11.70
2022-11-19T02:31:01.495Z,11.30
2022-11-19T02:36:10.883Z,9.98
2022-11-19T02:41:37.535Z,11.15
2022-11-19T02:46:43.226Z,9.60
2022-11-19T02:51:46.191Z,11.20
2022-11-19T02:56:52.640Z,11.32
2022-11-19T03:02:15.110Z,11.75
2022-11-19T03:07:20.089Z,13.75
2022-11-19T03:12:30.732Z,10.65
2022-11-19T03:17:43.992Z,13.32
2022-11-19T03:22:53.223Z,10.95
2022-11-19T03:28:00.726Z,12.75
2022-11-19T03:33:09.807Z,12.73
2022-11-19T03:38:17.209Z,12.75
2022-11-19T03:43:22.393Z,11.23
2022-11-19T03:48:28.862Z,11.27
2022-11-19T03:53:31.553Z,13.40
2022-11-19T03:58:39.236Z,13.45
2022-11-19T04:04:03.508Z,11.88
2022-11-19T04:09:06.060Z,12.23
2022-11-19T04:14:08.825Z,14.07
2022-11-19T04:19:12.932Z,14.85
2022-11-19T04:24:15.783Z,11.40
2022-11-19T04:29:18.630Z,14.13
2022-11-19T04:34:22.877Z,15.77
2022-11-19T04:39:25.793Z,11.85
2022-11-19T04:44:28.422Z,13.45
2022-11-19T04:49:32.470Z,13.68
2022-11-19T04:54:35.236Z,11.35
2022-11-19T04:59:37.835Z,13.02
2022-11-19T05:04:41.830Z,13.68
2022-11-19T05:09:44.628Z,11.20
2022-11-19T05:14:47.347Z,14.70
2022-11-19T05:19:51.297Z,13.60
2022-11-19T05:24:53.901Z,12.30
2022-11-19T05:29:56.509Z,15.00
2022-11-19T05:35:00.456Z,15.65
2022-11-19T05:40:03.663Z,10.35
2022-11-19T05:45:07.511Z,15.00
2022-11-19T05:50:20.582Z,10.50
2022-11-19T05:55:23.169Z,18.27
2022-11-19T06:00:26.172Z,11.73
2022-11-19T06:05:30.151Z,12.60
2022-11-19T06:10:33.049Z,10.52
2022-11-19T06:15:35.738Z,14.85
2022-11-19T06:20:39.738Z,14.15
2022-11-19T06:25:42.342Z,11.70
2022-11-19T06:30:44.965Z,13.40
2022-11-19T06:35:50.118Z,14.25
2022-11-19T06:40:52.706Z,14.25
2022-11-19T06:45:55.837Z,14.35
2022-11-19T06:51:01.825Z,15.00
2022-11-19T06:56:06.939Z,14.13
2022-11-19T07:01:09.525Z,16.92
2022-11-19T07:06:13.447Z,15.57
2022-11-19T07:11:28.331Z,13.38
2022-11-19T07:16:32.658Z,15.55
2022-11-19T07:26:40.439Z,15.65
2022-11-19T07:31:43.527Z,14.30
2022-11-19T07:36:47.878Z,17.30
2022-11-19T07:47:11.217Z,15.38
2022-11-19T07:52:15.201Z,17.70
2022-11-19T07:57:18.165Z,13.88
2022-11-19T08:02:20.827Z,17.30
2022-11-19T08:07:24.856Z,19.83
2022-11-19T08:12:27.474Z,17.77
2022-11-19T08:17:47.568Z,18.13
2022-11-19T08:22:52.916Z,19.23
2022-11-19T08:27:55.528Z,22.10
2022-11-19T08:32:58.401Z,19.25
2022-11-19T08:38:02.416Z,30.27
2022-11-19T08:43:05.338Z,18.38
2022-11-19T08:48:10.460Z,24.92
2022-11-19T08:53:14.683Z,18.08
2022-11-19T08:58:17.599Z,14.52
2022-11-19T09:03:20.178Z,20.92
2022-11-19T09:08:24.063Z,19.77
2022-11-19T09:13:27.006Z,11.35
2022-11-19T09:18:29.951Z,17.95
2022-11-19T09:23:34.287Z,18.55
2022-11-19T09:33:43.081Z,17.80
2022-11-19T09:38:48.004Z,14.63
2022-11-19T09:44:03.394Z,16.73
2022-11-19T09:49:12.937Z,17.95
2022-11-19T09:54:20.072Z,16.10
2022-11-19T09:59:27.050Z,17.50
2022-11-19T10:04:33.505Z,15.40
2022-11-19T10:10:00.246Z,14.80
2022-11-19T10:15:20.628Z,19.30
2022-11-19T10:20:40.957Z,13.00
2022-11-19T10:25:46.972Z,14.35
2022-11-19T10:30:52.887Z,11.80
2022-11-19T10:35:59.750Z,18.20
2022-11-19T10:41:10.693Z,12.07
2022-11-19T10:46:17.904Z,13.93
2022-11-19T10:51:23.579Z,17.33
2022-11-19T10:56:35.902Z,13.35
2022-11-19T11:01:42.791Z,14.57
2022-11-19T11:06:53.407Z,16.17
2022-11-19T11:12:19.190Z,13.95
2022-11-19T11:17:26.448Z,12.35
2022-11-19T11:22:30.220Z,13.60
2022-11-19T11:27:36.741Z,13.77
2022-11-19T11:32:41.192Z,13.70
2022-11-19T11:37:46.603Z,11.20
2022-11-19T11:42:52.614Z,12.45
2022-11-19T11:47:58.286Z,14.18
2022-11-19T11:53:09.181Z,11.88
2022-11-19T11:58:28.405Z,12.00
2022-11-19T12:03:49.349Z,11.85
2022-11-19T12:09:03.386Z,14.18
2022-11-19T12:14:11.276Z,11.32
2022-11-19T12:19:34.527Z,11.80
2022-11-19T12:24:51.715Z,7.28
2022-11-19T12:30:05.499Z,6.68
2022-11-19T12:35:36.103Z,8.47
2022-11-19T12:40:46.812Z,7.35
2022-11-19T12:45:59.476Z,8.50
2022-11-19T12:51:07.860Z,9.55
2022-11-19T12:56:24.078Z,11.10
2022-11-19T13:01:35.313Z,10.40
2022-11-19T13:06:44.588Z,10.20
2022-11-19T13:11:55.108Z,11.43
2022-11-19T13:17:01.986Z,9.35
2022-11-19T13:22:10.524Z,11.70
2022-11-19T13:27:23.082Z,10.68
2022-11-19T13:32:34.645Z,11.68
2022-11-19T13:37:46.739Z,12.45
2022-11-19T13:43:31.144Z,10.10
2022-11-19T13:48:38.530Z,9.55
2022-11-19T13:53:46.712Z,9.00
2022-11-19T13:58:52.387Z,10.57
2022-11-19T14:04:14.476Z,11.00
2022-11-19T14:09:27.964Z,13.30
2022-11-19T14:15:07.989Z,11.05
2022-11-19T14:20:53.056Z,9.52
2022-11-19T14:26:13.583Z,11.30
2022-11-19T14:31:18.722Z,9.15
2022-11-19T14:36:29.591Z,9.40
2022-11-19T14:41:35.736Z,10.93
2022-11-19T14:46:42.772Z,8.95
2022-11-19T14:51:53.369Z,11.15
2022-11-19T14:57:16.768Z,10.35
2022-11-19T15:02:25.504Z,9.18
2022-11-19T15:07:55.936Z,10.35
2022-11-19T15:13:25.910Z,15.30
2022-11-19T15:19:19.570Z,12.57
2022-11-19T15:24:35.328Z,12.07
2022-11-19T15:30:04.695Z,11.52
2022-11-19T15:35:41.941Z,16.38
2022-11-19T15:40:47.717Z,14.88
2022-11-19T15:45:55.360Z,15.82
2022-11-19T15:50:59.198Z,18.83
2022-11-19T15:56:07.031Z,14.45
2022-11-19T16:01:15.304Z,18.40
2022-11-19T16:06:22.611Z,25.88
2022-11-19T16:11:49.233Z,22.27
2022-11-19T16:17:10.593Z,22.52
2022-11-19T16:22:14.154Z,28.95
2022-11-19T16:27:25.254Z,21.17
2022-11-19T16:32:29.024Z,26.60
2022-11-19T16:37:32.386Z,27.50
2022-11-19T16:42:37.785Z,26.75
2022-11-19T16:47:51.660Z,25.17
2022-11-19T16:52:55.391Z,29.15
2022-11-19T16:58:02.064Z,24.90
2022-11-19T17:03:18.595Z,32.58
2022-11-19T17:08:24.091Z,32.28
2022-11-19T17:13:32.607Z,34.22
2022-11-19T17:18:36.314Z,39.05
2022-11-19T17:23:49.427Z,27.48
2022-11-19T17:29:01.101Z,34.17
2022-11-19T17:34:13.142Z,38.33
2022-11-19T17:39:22.513Z,32.70
2022-11-19T17:44:39.518Z,36.55
2022-11-19T17:49:44.163Z,30.25
2022-11-19T17:54:47.836Z,36.08
2022-11-19T17:59:53.159Z,31.40
2022-11-19T18:04:56.472Z,52.30
2022-11-19T18:09:59.701Z,61.38
2022-11-19T18:15:07.113Z,42.03
2022-11-19T18:20:11.271Z,44.58
2022-11-19T18:25:17.607Z,39.95
2022-11-19T18:30:21.713Z,50.22
2022-11-19T18:35:25.693Z,52.65
2022-11-19T18:40:28.420Z,51.97
2022-11-19T18:45:32.719Z,67.63
2022-11-19T18:50:35.529Z,47.55
2022-11-19T18:55:38.206Z,42.40
2022-11-19T19:00:43.316Z,40.53
2022-11-19T19:05:46.874Z,44.00
2022-11-19T19:10:49.944Z,32.23
2022-11-19T19:16:01.586Z,40.65
2022-11-19T19:21:05.895Z,34.95
2022-11-19T19:26:09.328Z,38.88
2022-11-19T19:31:17.797Z,30.58
2022-11-19T19:36:23.110Z,29.75
2022-11-19T19:41:28.642Z,24.10
2022-11-19T19:46:34.504Z,21.40
2022-11-19T19:51:37.787Z,25.20
2022-11-19T19:56:41.751Z,34.97
2022-11-19T20:01:47.710Z,29.02
2022-11-19T20:06:52.721Z,35.97
2022-11-19T20:11:55.900Z,32.47
2022-11-19T20:17:01.249Z,34.53
2022-11-19T20:22:04.565Z,31.15
2022-11-19T20:27:08.061Z,25.50
2022-11-19T20:32:12.487Z,29.50
2022-11-19T20:37:15.727Z,38.05
2022-11-19T20:42:36.400Z,35.90
2022-11-19T20:47:41.371Z,30.52
2022-11-19T20:52:44.811Z,30.70
2022-11-19T20:57:47.995Z,25.37
2022-11-19T21:02:52.590Z,29.45
2022-11-19T21:07:55.767Z,27.45
2022-11-19T21:13:04.257Z,24.58
2022-11-19T21:18:08.213Z,23.90
2022-11-19T21:23:10.859Z,25.05
2022-11-19T21:28:14.218Z,27.48
2022-11-19T21:33:18.386Z,18.53
2022-11-19T21:38:21.154Z,20.73
2022-11-19T21:43:24.767Z,25.20
2022-11-19T21:48:29.626Z,19.42
2022-11-19T21:53:32.900Z,25.70
2022-11-19T21:58:37.130Z,24.65
2022-11-19T22:03:42.500Z,25.50
2022-11-19T22:08:45.764Z,22.17
2022-11-19T22:13:48.916Z,19.50
2022-11-19T22:18:53.745Z,25.92
2022-11-19T22:23:56.845Z,23.20
2022-11-19T22:29:00.151Z,23.17
2022-11-19T22:34:04.893Z,21.30
2022-11-19T22:39:09.275Z,22.23
2022-11-19T22:49:16.539Z,28.02
2022-11-19T22:59:23.111Z,40.17
2022-11-19T23:09:32.480Z,29.02
2022-11-19T23:14:37.261Z,27.95
2022-11-19T23:19:41.931Z,26.67
2022-11-19T23:24:45.061Z,23.70
2022-11-19T23:29:48.335Z,24.58
2022-11-19T23:34:53.050Z,21.00
2022-11-19T23:39:56.454Z,24.52
2022-11-19T23:44:59.787Z,19.40
2022-11-19T23:50:05.247Z,21.17
2022-11-19T23:55:09.347Z,24.70
